sensor_id;sensor_type;location;lat;lon;timestamp;pressure;altitude;pressure_sealevel;temperature;humidity
36234;BME280;43467;50.890;5.982;2022-12-29T00:01:24;98887.63;;;11.31;89.80
36234;BME280;43467;50.890;5.982;2022-12-29T00:03:50;98904.25;;;11.33;89.76
36234;BME280;43467;50.890;5.982;2022-12-29T00:06:15;98894.41;;;11.35;89.35
36234;BME280;43467;50.890;5.982;2022-12-29T00:08:40;98881.16;;;11.35;89.87
36234;BME280;43467;50.890;5.982;2022-12-29T00:11:14;98872.38;;;11.35;89.29
36234;BME280;43467;50.890;5.982;2022-12-29T00:13:41;98874.69;;;11.39;88.80
36234;BME280;43467;50.890;5.982;2022-12-29T00:16:26;98847.34;;;11.39;88.74
36234;BME280;43467;50.890;5.982;2022-12-29T00:18:51;98856.88;;;11.41;88.25
36234;BME280;43467;50.890;5.982;2022-12-29T00:21:19;98853.72;;;11.36;87.90
36234;BME280;43467;50.890;5.982;2022-12-29T00:24:04;98860.50;;;11.40;87.89
36234;BME280;43467;50.890;5.982;2022-12-29T00:26:54;98873.00;;;11.38;87.83
36234;BME280;43467;50.890;5.982;2022-12-29T00:29:40;98858.69;;;11.41;87.96
36234;BME280;43467;50.890;5.982;2022-12-29T00:32:24;98858.69;;;11.41;87.27
36234;BME280;43467;50.890;5.982;2022-12-29T00:35:10;98843.97;;;11.37;87.54
36234;BME280;43467;50.890;5.982;2022-12-29T00:37:42;98858.69;;;11.41;87.37
36234;BME280;43467;50.890;5.982;2022-12-29T00:40:27;98867.03;;;11.47;87.19
36234;BME280;43467;50.890;5.982;2022-12-29T00:43:11;98850.00;;;11.39;87.30
36234;BME280;43467;50.890;5.982;2022-12-29T00:45:55;98853.41;;;11.41;87.11
36234;BME280;43467;50.890;5.982;2022-12-29T00:48:21;98826.03;;;11.40;87.02
36234;BME280;43467;50.890;5.982;2022-12-29T00:51:07;98858.69;;;11.41;86.70
36234;BME280;43467;50.890;5.982;2022-12-29T00:53:32;98867.69;;;11.38;86.23
36234;BME280;43467;50.890;5.982;2022-12-29T00:55:58;98842.13;;;11.37;86.58
36234;BME280;43467;50.890;5.982;2022-12-29T00:58:23;98858.16;;;11.36;86.38
36234;BME280;43467;50.890;5.982;2022-12-29T01:00:51;98860.91;;;11.34;85.80
36234;BME280;43467;50.890;5.982;2022-12-29T01:03:16;98858.72;;;11.28;86.17
36234;BME280;43467;50.890;5.982;2022-12-29T01:05:42;98852.56;;;11.28;85.69
36234;BME280;43467;50.890;5.982;2022-12-29T01:08:08;98858.25;;;11.34;85.19
36234;BME280;43467;50.890;5.982;2022-12-29T01:10:33;98832.53;;;11.36;85.08
36234;BME280;43467;50.890;5.982;2022-12-29T01:12:59;98853.59;;;11.38;84.50
36234;BME280;43467;50.890;5.982;2022-12-29T01:15:24;98829.13;;;11.34;84.01
36234;BME280;43467;50.890;5.982;2022-12-29T01:17:49;98841.94;;;11.40;83.90
36234;BME280;43467;50.890;5.982;2022-12-29T01:20:15;98840.56;;;11.35;83.88
36234;BME280;43467;50.890;5.982;2022-12-29T01:22:40;98858.03;;;11.37;83.52
36234;BME280;43467;50.890;5.982;2022-12-29T01:25:07;98844.59;;;11.40;83.23
36234;BME280;43467;50.890;5.982;2022-12-29T01:27:33;98839.19;;;11.29;82.75
36234;BME280;43467;50.890;5.982;2022-12-29T01:29:58;98829.41;;;11.42;82.07
36234;BME280;43467;50.890;5.982;2022-12-29T01:32:23;98836.50;;;11.42;81.75
36234;BME280;43467;50.890;5.982;2022-12-29T01:34:49;98837.03;;;11.47;81.56
36234;BME280;43467;50.890;5.982;2022-12-29T01:37:14;98827.53;;;11.44;81.09
36234;BME280;43467;50.890;5.982;2022-12-29T01:39:40;98837.03;;;11.47;81.14
36234;BME280;43467;50.890;5.982;2022-12-29T01:42:08;98822.84;;;11.48;80.50
36234;BME280;43467;50.890;5.982;2022-12-29T01:45:01;98848.09;;;11.41;79.89
36234;BME280;43467;50.890;5.982;2022-12-29T01:47:53;98833.66;;;11.45;79.62
36234;BME280;43467;50.890;5.982;2022-12-29T01:50:26;98856.53;;;11.46;79.50
36234;BME280;43467;50.890;5.982;2022-12-29T01:53:00;98830.16;;;11.44;79.16
36234;BME280;43467;50.890;5.982;2022-12-29T01:55:29;98836.94;;;11.48;79.38
36234;BME280;43467;50.890;5.982;2022-12-29T01:57:59;98847.31;;;11.51;79.20
36234;BME280;43467;50.890;5.982;2022-12-29T02:00:26;98838.00;;;11.46;79.27
36234;BME280;43467;50.890;5.982;2022-12-29T02:02:52;98841.06;;;11.52;79.42
36234;BME280;43467;50.890;5.982;2022-12-29T02:07:52;98832.78;;;11.57;79.19
36234;BME280;43467;50.890;5.982;2022-12-29T02:10:20;98833.50;;;11.59;79.62
36234;BME280;43467;50.890;5.982;2022-12-29T02:12:46;98846.66;;;11.60;79.56
36234;BME280;43467;50.890;5.982;2022-12-29T02:15:12;98830.53;;;11.63;79.41
36234;BME280;43467;50.890;5.982;2022-12-29T02:17:53;98820.56;;;11.67;79.76
36234;BME280;43467;50.890;5.982;2022-12-29T02:20:41;98830.31;;;11.66;79.59
36234;BME280;43467;50.890;5.982;2022-12-29T02:29:20;98816.19;;;11.66;81.42
36234;BME280;43467;50.890;5.982;2022-12-29T02:32:01;98818.84;;;11.66;83.40
36234;BME280;43467;50.890;5.982;2022-12-29T02:37:32;98805.75;;;11.52;85.19
36234;BME280;43467;50.890;5.982;2022-12-29T02:40:20;98811.38;;;11.47;85.16
36234;BME280;43467;50.890;5.982;2022-12-29T02:50:38;98790.84;;;11.38;85.67
36234;BME280;43467;50.890;5.982;2022-12-29T02:53:07;98792.53;;;11.39;85.03
36234;BME280;43467;50.890;5.982;2022-12-29T02:55:34;98787.34;;;11.38;85.17
36234;BME280;43467;50.890;5.982;2022-12-29T03:00:38;98779.00;;;11.31;86.76
36234;BME280;43467;50.890;5.982;2022-12-29T03:06:02;98772.53;;;11.35;85.07
36234;BME280;43467;50.890;5.982;2022-12-29T03:08:42;98779.28;;;11.39;84.67
36234;BME280;43467;50.890;5.982;2022-12-29T03:11:11;98759.78;;;11.40;84.62
36234;BME280;43467;50.890;5.982;2022-12-29T03:14:02;98757.63;;;11.45;84.07
36234;BME280;43467;50.890;5.982;2022-12-29T03:16:54;98755.28;;;11.53;83.89
36234;BME280;43467;50.890;5.982;2022-12-29T03:19:34;98752.97;;;11.49;83.76
36234;BME280;43467;50.890;5.982;2022-12-29T03:22:04;98736.94;;;11.50;83.24
36234;BME280;43467;50.890;5.982;2022-12-29T03:24:52;98763.34;;;11.52;83.47
36234;BME280;43467;50.890;5.982;2022-12-29T03:27:22;98763.13;;;11.55;83.37
36234;BME280;43467;50.890;5.982;2022-12-29T03:29:55;98767.25;;;11.59;83.21
36234;BME280;43467;50.890;5.982;2022-12-29T03:32:25;98754.84;;;11.59;83.39
36234;BME280;43467;50.890;5.982;2022-12-29T03:34:53;98743.00;;;11.52;83.13
36234;BME280;43467;50.890;5.982;2022-12-29T03:37:26;98724.94;;;11.57;82.87
36234;BME280;43467;50.890;5.982;2022-12-29T03:39:54;98740.13;;;11.55;82.75
36234;BME280;43467;50.890;5.982;2022-12-29T03:42:24;98740.00;;;11.57;82.14
36234;BME280;43467;50.890;5.982;2022-12-29T03:44:56;98751.16;;;11.49;82.29
36234;BME280;43467;50.890;5.982;2022-12-29T03:47:22;98740.34;;;11.52;82.07
36234;BME280;43467;50.890;5.982;2022-12-29T03:49:49;98756.44;;;11.49;81.90
36234;BME280;43467;50.890;5.982;2022-12-29T03:52:15;98750.34;;;11.49;81.90
36234;BME280;43467;50.890;5.982;2022-12-29T03:54:41;98750.44;;;11.47;81.83
36234;BME280;43467;50.890;5.982;2022-12-29T03:57:06;98739.59;;;11.50;81.64
36234;BME280;43467;50.890;5.982;2022-12-29T03:59:31;98767.56;;;11.54;81.33
36234;BME280;43467;50.890;5.982;2022-12-29T04:01:57;98762.16;;;11.56;81.41
36234;BME280;43467;50.890;5.982;2022-12-29T04:04:22;98764.59;;;11.59;81.46
36234;BME280;43467;50.890;5.982;2022-12-29T04:06:47;98765.66;;;11.56;81.12
36234;BME280;43467;50.890;5.982;2022-12-29T04:09:13;98753.66;;;11.63;80.24
36234;BME280;43467;50.890;5.982;2022-12-29T04:11:38;98757.50;;;11.59;80.65
36234;BME280;43467;50.890;5.982;2022-12-29T04:14:04;98755.69;;;11.60;80.42
36234;BME280;43467;50.890;5.982;2022-12-29T04:16:29;98761.00;;;11.60;80.61
36234;BME280;43467;50.890;5.982;2022-12-29T04:18:55;98759.06;;;11.62;80.39
36234;BME280;43467;50.890;5.982;2022-12-29T04:21:20;98756.53;;;11.60;80.40
36234;BME280;43467;50.890;5.982;2022-12-29T04:23:45;98766.69;;;11.66;79.68
36234;BME280;43467;50.890;5.982;2022-12-29T04:26:11;98763.31;;;11.64;79.33
36234;BME280;43467;50.890;5.982;2022-12-29T04:28:36;98764.03;;;11.66;79.46
36234;BME280;43467;50.890;5.982;2022-12-29T04:31:03;98764.16;;;11.65;79.33
36234;BME280;43467;50.890;5.982;2022-12-29T04:33:29;98757.59;;;11.58;79.13
36234;BME280;43467;50.890;5.982;2022-12-29T04:35:54;98761.22;;;11.57;78.80
36234;BME280;43467;50.890;5.982;2022-12-29T04:38:21;98757.16;;;11.64;78.29
36234;BME280;43467;50.890;5.982;2022-12-29T04:40:47;98768.38;;;11.68;78.35
36234;BME280;43467;50.890;5.982;2022-12-29T04:43:13;98751.31;;;11.72;77.75
36234;BME280;43467;50.890;5.982;2022-12-29T04:45:43;98765.50;;;11.71;77.34
36234;BME280;43467;50.890;5.982;2022-12-29T04:48:08;98762.66;;;11.74;77.43
36234;BME280;43467;50.890;5.982;2022-12-29T04:50:34;98772.09;;;11.78;77.06
36234;BME280;43467;50.890;5.982;2022-12-29T04:52:59;98768.13;;;11.83;77.17
36234;BME280;43467;50.890;5.982;2022-12-29T04:55:25;98780.53;;;11.83;76.97
36234;BME280;43467;50.890;5.982;2022-12-29T04:57:50;98787.03;;;11.79;76.92
36234;BME280;43467;50.890;5.982;2022-12-29T05:00:15;98790.66;;;11.78;76.70
36234;BME280;43467;50.890;5.982;2022-12-29T05:02:41;98783.19;;;11.83;76.32
36234;BME280;43467;50.890;5.982;2022-12-29T05:05:07;98789.06;;;11.75;76.34
36234;BME280;43467;50.890;5.982;2022-12-29T05:07:32;98789.81;;;11.77;75.97
36234;BME280;43467;50.890;5.982;2022-12-29T05:09:59;98811.63;;;11.81;76.10
36234;BME280;43467;50.890;5.982;2022-12-29T05:12:24;98781.72;;;11.79;75.57
36234;BME280;43467;50.890;5.982;2022-12-29T05:14:49;98799.31;;;11.80;75.04
36234;BME280;43467;50.890;5.982;2022-12-29T05:17:15;98797.97;;;11.74;74.90
36234;BME280;43467;50.890;5.982;2022-12-29T05:19:40;98794.78;;;11.69;74.91
36234;BME280;43467;50.890;5.982;2022-12-29T05:22:05;98787.69;;;11.70;74.87
36234;BME280;43467;50.890;5.982;2022-12-29T05:24:31;98815.16;;;11.69;74.82
36234;BME280;43467;50.890;5.982;2022-12-29T05:26:56;98816.31;;;11.64;74.80
36234;BME280;43467;50.890;5.982;2022-12-29T05:29:21;98803.19;;;11.63;74.56
36234;BME280;43467;50.890;5.982;2022-12-29T05:31:47;98812.38;;;11.70;74.82
36234;BME280;43467;50.890;5.982;2022-12-29T05:34:12;98813.88;;;11.61;74.55
36234;BME280;43467;50.890;5.982;2022-12-29T05:36:38;98808.94;;;11.57;74.57
36234;BME280;43467;50.890;5.982;2022-12-29T05:39:05;98817.94;;;11.54;74.38
36234;BME280;43467;50.890;5.982;2022-12-29T05:41:30;98814.56;;;11.52;74.10
36234;BME280;43467;50.890;5.982;2022-12-29T05:43:55;98798.75;;;11.51;73.73
36234;BME280;43467;50.890;5.982;2022-12-29T05:46:21;98816.59;;;11.49;74.02
36234;BME280;43467;50.890;5.982;2022-12-29T05:48:46;98802.34;;;11.50;74.17
36234;BME280;43467;50.890;5.982;2022-12-29T05:51:11;98816.06;;;11.44;73.47
36234;BME280;43467;50.890;5.982;2022-12-29T05:53:37;98803.88;;;11.41;73.60
36234;BME280;43467;50.890;5.982;2022-12-29T05:56:02;98809.38;;;11.38;73.30
36234;BME280;43467;50.890;5.982;2022-12-29T05:58:28;98826.47;;;11.34;73.43
36234;BME280;43467;50.890;5.982;2022-12-29T06:00:53;98829.88;;;11.36;73.55
36234;BME280;43467;50.890;5.982;2022-12-29T06:03:19;98823.81;;;11.34;73.86
36234;BME280;43467;50.890;5.982;2022-12-29T06:05:45;98829.97;;;11.35;73.73
36234;BME280;43467;50.890;5.982;2022-12-29T06:08:11;98836.03;;;11.37;73.83
36234;BME280;43467;50.890;5.982;2022-12-29T06:10:37;98825.44;;;11.24;74.08
36234;BME280;43467;50.890;5.982;2022-12-29T06:13:02;98838.75;;;11.35;74.33
36234;BME280;43467;50.890;5.982;2022-12-29T06:15:30;98839.94;;;11.31;74.37
36234;BME280;43467;50.890;5.982;2022-12-29T06:17:56;98836.34;;;11.32;74.31
36234;BME280;43467;50.890;5.982;2022-12-29T06:20:21;98849.69;;;11.31;74.54
36234;BME280;43467;50.890;5.982;2022-12-29T06:22:47;98853.09;;;11.33;74.70
36234;BME280;43467;50.890;5.982;2022-12-29T06:25:12;98852.97;;;11.34;74.66
36234;BME280;43467;50.890;5.982;2022-12-29T06:27:38;98844.28;;;11.32;74.72
36234;BME280;43467;50.890;5.982;2022-12-29T06:30:03;98849.59;;;11.32;74.76
36234;BME280;43467;50.890;5.982;2022-12-29T06:32:29;98855.84;;;11.31;74.96
36234;BME280;43467;50.890;5.982;2022-12-29T06:34:54;98850.75;;;11.28;74.55
36234;BME280;43467;50.890;5.982;2022-12-29T06:37:19;98861.66;;;11.36;74.82
36234;BME280;43467;50.890;5.982;2022-12-29T06:39:45;98875.78;;;11.37;74.85
36234;BME280;43467;50.890;5.982;2022-12-29T06:42:10;98882.97;;;11.35;75.10
36234;BME280;43467;50.890;5.982;2022-12-29T06:44:35;98867.06;;;11.35;74.70
36234;BME280;43467;50.890;5.982;2022-12-29T06:47:01;98868.13;;;11.32;74.70
36234;BME280;43467;50.890;5.982;2022-12-29T06:49:26;98876.59;;;11.37;74.66
36234;BME280;43467;50.890;5.982;2022-12-29T06:51:51;98882.88;;;11.36;74.94
36234;BME280;43467;50.890;5.982;2022-12-29T06:54:17;98888.34;;;11.33;74.49
36234;BME280;43467;50.890;5.982;2022-12-29T06:56:43;98889.53;;;11.29;74.64
36234;BME280;43467;50.890;5.982;2022-12-29T06:59:09;98894.72;;;11.31;75.07
36234;BME280;43467;50.890;5.982;2022-12-29T07:01:34;98889.13;;;11.35;74.73
36234;BME280;43467;50.890;5.982;2022-12-29T07:04:01;98897.59;;;11.28;74.63
36234;BME280;43467;50.890;5.982;2022-12-29T07:06:27;98902.91;;;11.28;75.09
36234;BME280;43467;50.890;5.982;2022-12-29T07:08:52;98902.59;;;11.32;74.84
36234;BME280;43467;50.890;5.982;2022-12-29T07:11:20;98904.59;;;11.29;74.63
36234;BME280;43467;50.890;5.982;2022-12-29T07:13:45;98899.50;;;11.26;74.83
36234;BME280;43467;50.890;5.982;2022-12-29T07:16:11;98917.72;;;11.30;74.69
36234;BME280;43467;50.890;5.982;2022-12-29T07:18:36;98911.16;;;11.23;74.96
36234;BME280;43467;50.890;5.982;2022-12-29T07:21:02;98915.72;;;11.21;74.31
36234;BME280;43467;50.890;5.982;2022-12-29T07:23:28;98928.31;;;11.17;74.44
36234;BME280;43467;50.890;5.982;2022-12-29T07:26:05;98915.38;;;11.13;73.57
36234;BME280;43467;50.890;5.982;2022-12-29T07:28:31;98919.75;;;11.14;74.01
36234;BME280;43467;50.890;5.982;2022-12-29T07:30:59;98930.97;;;11.17;73.82
36234;BME280;43467;50.890;5.982;2022-12-29T07:33:25;98935.53;;;11.15;73.29
36234;BME280;43467;50.890;5.982;2022-12-29T07:35:53;98935.00;;;11.10;72.78
36234;BME280;43467;50.890;5.982;2022-12-29T07:38:18;98940.00;;;11.15;73.17
36234;BME280;43467;50.890;5.982;2022-12-29T07:40:43;98930.13;;;11.17;73.02
36234;BME280;43467;50.890;5.982;2022-12-29T07:43:09;98917.09;;;11.14;72.84
36234;BME280;43467;50.890;5.982;2022-12-29T07:45:34;98932.34;;;11.10;72.86
36234;BME280;43467;50.890;5.982;2022-12-29T07:48:00;98930.03;;;11.18;72.83
36234;BME280;43467;50.890;5.982;2022-12-29T07:50:27;98921.53;;;11.13;72.67
36234;BME280;43467;50.890;5.982;2022-12-29T07:52:53;98921.44;;;11.15;72.97
36234;BME280;43467;50.890;5.982;2022-12-29T07:55:18;98948.47;;;11.20;72.75
36234;BME280;43467;50.890;5.982;2022-12-29T07:57:44;98952.94;;;11.19;73.44
36234;BME280;43467;50.890;5.982;2022-12-29T08:00:09;98951.31;;;11.17;72.68
36234;BME280;43467;50.890;5.982;2022-12-29T08:02:35;98961.09;;;11.16;72.98
36234;BME280;43467;50.890;5.982;2022-12-29T08:05:01;98962.88;;;11.16;72.28
36234;BME280;43467;50.890;5.982;2022-12-29T08:07:26;98960.13;;;11.17;72.31
36234;BME280;43467;50.890;5.982;2022-12-29T08:09:52;98973.78;;;11.11;71.66
36234;BME280;43467;50.890;5.982;2022-12-29T08:12:17;98967.97;;;11.19;71.43
36234;BME280;43467;50.890;5.982;2022-12-29T08:14:43;98978.25;;;11.11;71.34
36234;BME280;43467;50.890;5.982;2022-12-29T08:17:08;98988.09;;;11.22;71.58
36234;BME280;43467;50.890;5.982;2022-12-29T08:19:35;98991.38;;;11.25;71.46
36234;BME280;43467;50.890;5.982;2022-12-29T08:22:00;98988.31;;;11.18;71.85
36234;BME280;43467;50.890;5.982;2022-12-29T08:24:26;98991.25;;;11.14;71.76
36234;BME280;43467;50.890;5.982;2022-12-29T08:26:52;98992.97;;;11.15;71.58
36234;BME280;43467;50.890;5.982;2022-12-29T08:29:17;99011.50;;;11.15;72.13
36234;BME280;43467;50.890;5.982;2022-12-29T08:31:43;99003.31;;;11.05;72.93
36234;BME280;43467;50.890;5.982;2022-12-29T08:34:08;98997.38;;;11.02;73.23
36234;BME280;43467;50.890;5.982;2022-12-29T08:36:33;99005.47;;;11.00;73.65
36234;BME280;43467;50.890;5.982;2022-12-29T08:38:59;98988.72;;;11.00;73.73
36234;BME280;43467;50.890;5.982;2022-12-29T08:41:24;98998.75;;;10.95;73.85
36234;BME280;43467;50.890;5.982;2022-12-29T08:43:49;99007.66;;;10.94;73.74
36234;BME280;43467;50.890;5.982;2022-12-29T08:46:16;99005.00;;;10.94;72.97
36234;BME280;43467;50.890;5.982;2022-12-29T08:48:41;99013.28;;;11.02;72.57
36234;BME280;43467;50.890;5.982;2022-12-29T08:51:07;99019.97;;;11.07;71.61
36234;BME280;43467;50.890;5.982;2022-12-29T08:53:33;99021.78;;;11.07;70.47
36234;BME280;43467;50.890;5.982;2022-12-29T08:56:00;99027.28;;;11.04;69.90
36234;BME280;43467;50.890;5.982;2022-12-29T08:58:26;99025.66;;;11.01;69.72
36234;BME280;43467;50.890;5.982;2022-12-29T09:00:53;99030.88;;;11.03;69.19
36234;BME280;43467;50.890;5.982;2022-12-29T09:03:19;99027.16;;;11.05;68.78
36234;BME280;43467;50.890;5.982;2022-12-29T09:05:51;99044.03;;;11.04;68.66
36234;BME280;43467;50.890;5.982;2022-12-29T09:08:17;99039.69;;;11.03;68.55
36234;BME280;43467;50.890;5.982;2022-12-29T09:10:43;99026.66;;;11.00;67.80
36234;BME280;43467;50.890;5.982;2022-12-29T09:13:09;99050.59;;;11.11;67.89
36234;BME280;43467;50.890;5.982;2022-12-29T09:15:35;99051.34;;;11.13;67.69
36234;BME280;43467;50.890;5.982;2022-12-29T09:18:00;99046.56;;;11.06;66.63
36234;BME280;43467;50.890;5.982;2022-12-29T09:20:26;99048.25;;;11.07;66.71
36234;BME280;43467;50.890;5.982;2022-12-29T09:22:51;99062.91;;;11.12;67.15
36234;BME280;43467;50.890;5.982;2022-12-29T09:25:17;99034.47;;;11.02;67.87
36234;BME280;43467;50.890;5.982;2022-12-29T09:27:42;99045.63;;;11.07;67.28
36234;BME280;43467;50.890;5.982;2022-12-29T09:30:10;99036.38;;;11.00;67.84
36234;BME280;43467;50.890;5.982;2022-12-29T09:32:35;99047.84;;;11.00;67.93
36234;BME280;43467;50.890;5.982;2022-12-29T09:35:01;99034.47;;;11.02;67.76
36234;BME280;43467;50.890;5.982;2022-12-29T09:37:27;99049.50;;;11.01;67.81
36234;BME280;43467;50.890;5.982;2022-12-29T09:39:52;99058.09;;;11.05;67.49
36234;BME280;43467;50.890;5.982;2022-12-29T09:42:34;99055.25;;;11.08;67.89
36234;BME280;43467;50.890;5.982;2022-12-29T09:45:10;99059.53;;;11.23;67.56
36234;BME280;43467;50.890;5.982;2022-12-29T09:47:37;99053.69;;;11.18;67.30
36234;BME280;43467;50.890;5.982;2022-12-29T09:50:11;99063.34;;;11.19;67.29
36234;BME280;43467;50.890;5.982;2022-12-29T09:52:49;99073.50;;;11.12;66.96
36234;BME280;43467;50.890;5.982;2022-12-29T09:55:19;99058.66;;;11.10;67.13
36234;BME280;43467;50.890;5.982;2022-12-29T09:57:52;99053.66;;;11.05;67.24
36234;BME280;43467;50.890;5.982;2022-12-29T10:00:22;99057.75;;;10.97;67.36
36234;BME280;43467;50.890;5.982;2022-12-29T10:05:46;99060.75;;;11.05;66.49
36234;BME280;43467;50.890;5.982;2022-12-29T10:08:36;99069.38;;;11.08;66.58
36234;BME280;43467;50.890;5.982;2022-12-29T10:11:41;99068.81;;;11.03;66.03
36234;BME280;43467;50.890;5.982;2022-12-29T10:24:55;99075.91;;;11.03;66.20
36234;BME280;43467;50.890;5.982;2022-12-29T10:27:22;99084.84;;;11.14;66.00
36234;BME280;43467;50.890;5.982;2022-12-29T10:29:53;99096.69;;;11.09;66.06
36234;BME280;43467;50.890;5.982;2022-12-29T10:34:58;99106.66;;;11.18;65.34
36234;BME280;43467;50.890;5.982;2022-12-29T10:39:59;99098.13;;;11.27;64.38
36234;BME280;43467;50.890;5.982;2022-12-29T10:42:33;99083.47;;;11.22;64.08
36234;BME280;43467;50.890;5.982;2022-12-29T10:45:02;99099.06;;;11.26;63.92
36234;BME280;43467;50.890;5.982;2022-12-29T10:47:34;99107.22;;;11.23;63.77
36234;BME280;43467;50.890;5.982;2022-12-29T10:50:02;99074.50;;;11.24;63.31
36234;BME280;43467;50.890;5.982;2022-12-29T10:52:28;99115.09;;;11.37;62.60
36234;BME280;43467;50.890;5.982;2022-12-29T10:55:00;99098.56;;;11.34;62.53
36234;BME280;43467;50.890;5.982;2022-12-29T10:57:34;99103.75;;;11.35;62.31
36234;BME280;43467;50.890;5.982;2022-12-29T11:00:00;99118.72;;;11.36;62.69
36234;BME280;43467;50.890;5.982;2022-12-29T11:08:10;99134.66;;;11.22;62.30
36234;BME280;43467;50.890;5.982;2022-12-29T11:10:39;99145.59;;;11.30;62.59
36234;BME280;43467;50.890;5.982;2022-12-29T11:13:15;99135.22;;;11.27;62.63
36234;BME280;43467;50.890;5.982;2022-12-29T11:15:49;99141.16;;;11.31;62.27
36234;BME280;43467;50.890;5.982;2022-12-29T11:18:23;99130.25;;;11.35;62.15
36234;BME280;43467;50.890;5.982;2022-12-29T11:21:01;99147.81;;;11.24;62.67
36234;BME280;43467;50.890;5.982;2022-12-29T11:23:40;99154.31;;;11.32;62.76
36234;BME280;43467;50.890;5.982;2022-12-29T11:28:31;99158.13;;;11.28;62.84
36234;BME280;43467;50.890;5.982;2022-12-29T11:31:02;99130.06;;;11.38;62.87
36234;BME280;43467;50.890;5.982;2022-12-29T11:33:29;99161.00;;;11.38;62.93
36234;BME280;43467;50.890;5.982;2022-12-29T11:36:12;99134.88;;;11.19;62.33
36234;BME280;43467;50.890;5.982;2022-12-29T11:38:46;99176.81;;;11.39;62.96
36234;BME280;43467;50.890;5.982;2022-12-29T11:41:20;99174.75;;;11.30;62.35
36234;BME280;43467;50.890;5.982;2022-12-29T11:43:46;99179.56;;;11.38;62.20
36234;BME280;43467;50.890;5.982;2022-12-29T11:46:33;99178.25;;;11.31;61.68
36234;BME280;43467;50.890;5.982;2022-12-29T11:48:59;99173.59;;;11.34;62.10
36234;BME280;43467;50.890;5.982;2022-12-29T11:51:27;99178.16;;;11.32;62.18
36234;BME280;43467;50.890;5.982;2022-12-29T11:53:56;99185.69;;;11.38;61.79
36234;BME280;43467;50.890;5.982;2022-12-29T11:56:42;99185.50;;;11.41;61.96
36234;BME280;43467;50.890;5.982;2022-12-29T12:01:52;99177.53;;;11.29;62.32
36234;BME280;43467;50.890;5.982;2022-12-29T12:04:21;99164.28;;;11.29;62.09
36234;BME280;43467;50.890;5.982;2022-12-29T12:09:26;99175.53;;;11.32;62.35
36234;BME280;43467;50.890;5.982;2022-12-29T12:11:55;99181.34;;;11.37;62.23
36234;BME280;43467;50.890;5.982;2022-12-29T12:14:36;99190.56;;;11.32;62.72
36234;BME280;43467;50.890;5.982;2022-12-29T12:17:12;99177.03;;;11.36;62.91
36234;BME280;43467;50.890;5.982;2022-12-29T12:19:46;99190.50;;;11.46;62.63
36234;BME280;43467;50.890;5.982;2022-12-29T12:22:32;99185.34;;;11.30;63.25
36234;BME280;43467;50.890;5.982;2022-12-29T12:25:10;99182.34;;;11.22;63.51
36234;BME280;43467;50.890;5.982;2022-12-29T12:27:45;99186.63;;;11.25;63.42
36234;BME280;43467;50.890;5.982;2022-12-29T12:30:21;99196.97;;;11.15;63.10
36234;BME280;43467;50.890;5.982;2022-12-29T12:33:06;99194.56;;;11.25;63.15
36234;BME280;43467;50.890;5.982;2022-12-29T12:35:44;99187.50;;;11.38;62.83
36234;BME280;43467;50.890;5.982;2022-12-29T12:41:17;99191.50;;;11.31;62.23
36234;BME280;43467;50.890;5.982;2022-12-29T12:43:50;99205.41;;;11.34;62.70
36234;BME280;43467;50.890;5.982;2022-12-29T12:52:03;99194.41;;;11.40;62.96
36234;BME280;43467;50.890;5.982;2022-12-29T12:54:46;99201.25;;;11.30;62.98
36234;BME280;43467;50.890;5.982;2022-12-29T13:00:14;99201.09;;;11.19;63.16
36234;BME280;43467;50.890;5.982;2022-12-29T13:02:49;99214.25;;;11.21;63.27
36234;BME280;43467;50.890;5.982;2022-12-29T13:08:09;99211.47;;;11.36;63.41
36234;BME280;43467;50.890;5.982;2022-12-29T13:16:31;99216.22;;;11.31;63.46
36234;BME280;43467;50.890;5.982;2022-12-29T13:26:55;99212.78;;;11.29;63.23
36234;BME280;43467;50.890;5.982;2022-12-29T13:29:34;99211.22;;;11.27;63.38
36234;BME280;43467;50.890;5.982;2022-12-29T13:38:10;99192.09;;;11.22;62.70
36234;BME280;43467;50.890;5.982;2022-12-29T13:40:41;99220.94;;;11.26;62.54
36234;BME280;43467;50.890;5.982;2022-12-29T13:43:09;99227.31;;;11.24;62.80
36234;BME280;43467;50.890;5.982;2022-12-29T13:45:34;99231.25;;;11.31;62.54
36234;BME280;43467;50.890;5.982;2022-12-29T13:50:34;99238.34;;;11.30;62.76
36234;BME280;43467;50.890;5.982;2022-12-29T13:55:52;99234.41;;;11.23;62.86
36234;BME280;43467;50.890;5.982;2022-12-29T14:01:30;99233.09;;;11.16;62.38
36234;BME280;43467;50.890;5.982;2022-12-29T14:04:00;99246.34;;;11.16;62.95
36234;BME280;43467;50.890;5.982;2022-12-29T14:06:32;99247.00;;;11.05;63.08
36234;BME280;43467;50.890;5.982;2022-12-29T14:09:05;99247.59;;;11.10;62.63
36234;BME280;43467;50.890;5.982;2022-12-29T14:11:37;99251.66;;;11.02;63.32
36234;BME280;43467;50.890;5.982;2022-12-29T14:14:24;99249.66;;;11.05;63.36
36234;BME280;43467;50.890;5.982;2022-12-29T14:16:50;99252.97;;;11.09;63.28
36234;BME280;43467;50.890;5.982;2022-12-29T14:19:26;99258.25;;;11.09;63.22
36234;BME280;43467;50.890;5.982;2022-12-29T14:21:59;99269.06;;;11.06;62.83
36234;BME280;43467;50.890;5.982;2022-12-29T14:24:28;99265.00;;;11.00;63.14
36234;BME280;43467;50.890;5.982;2022-12-29T14:29:47;99268.69;;;10.98;63.44
36234;BME280;43467;50.890;5.982;2022-12-29T14:34:58;99264.63;;;11.06;63.49
36234;BME280;43467;50.890;5.982;2022-12-29T14:37:29;99254.09;;;11.05;63.42
36234;BME280;43467;50.890;5.982;2022-12-29T14:40:23;99261.97;;;11.06;63.18
36234;BME280;43467;50.890;5.982;2022-12-29T14:42:52;99258.47;;;11.06;62.67
36234;BME280;43467;50.890;5.982;2022-12-29T14:47:46;99272.56;;;11.06;62.34
36234;BME280;43467;50.890;5.982;2022-12-29T14:50:38;99272.09;;;11.00;61.88
36234;BME280;43467;50.890;5.982;2022-12-29T14:53:06;99261.16;;;10.92;62.45
36234;BME280;43467;50.890;5.982;2022-12-29T14:55:56;99272.75;;;10.89;62.95
36234;BME280;43467;50.890;5.982;2022-12-29T14:58:28;99279.28;;;10.98;63.08
36234;BME280;43467;50.890;5.982;2022-12-29T15:00:55;99279.19;;;10.99;62.82